Date,TemperatureHighF,TemperatureAvgF,TemperatureLowF,DewpointHighF,DewpointAvgF,DewpointLowF,HumidityHigh,HumidityAvg,HumidityLow,PressureMaxIn,PressureMinIn,WindSpeedMaxMPH,WindSpeedAvgMPH,GustSpeedMaxMPH,PrecipitationSumIn
2013-2-1,20.8,15.0,9.3,-2.1,-7.5,-13.3,46,36,22,29.23,28.85,0,0,0,0.00
2013-2-2,23.0,15.9,7.2,4.3,-2.5,-11.5,51,44,35,29.21,28.91,0,0,0,0.00
2013-2-3,22.1,12.5,2.8,2.0,-6.7,-13.7,46,41,33,29.00,28.82,0,0,0,0.00
2013-2-4,23.0,18.0,11.3,4.2,-0.0,-11.6,53,44,34,29.00,28.88,0,0,0,0.00
2013-2-5,26.6,21.3,13.5,15.2,2.7,-8.7,62,45,21,28.94,28.79,0,0,0,0.00
2013-2-6,31.1,20.5,8.6,13.0,0.3,-7.1,58,42,20,29.26,28.94,0,0,0,0.00
2013-2-7,36.1,29.5,23.9,12.0,8.0,4.0,47,40,31,29.26,28.88,5,1,5,0.04
2013-2-8,28.9,25.8,21.4,20.2,11.5,2.9,71,55,44,29.32,28.79,9,3,9,0.00
2013-2-9,31.8,20.7,9.7,10.8,0.7,-5.3,59,43,20,29.41,29.26,4,0,4,0.00
2013-2-10,38.5,27.2,16.2,26.6,11.9,3.9,67,54,30,29.29,28.70,5,1,5,0.20
2013-2-11,42.1,36.1,31.6,34.7,18.2,9.9,75,49,34,28.82,28.53,17,3,17,0.20
2013-2-12,32.7,30.5,27.7,13.2,9.6,7.6,46,41,35,29.03,28.82,10,1,10,0.20
2013-2-13,38.7,29.9,25.9,13.1,8.2,3.9,52,40,24,28.91,28.70,5,0,5,0.20
2013-2-14,37.8,33.2,24.8,24.5,18.5,11.7,68,55,43,28.79,28.67,10,1,10,0.00
2013-2-15,34.0,26.9,21.7,14.7,-0.0,-9.3,46,32,20,29.09,28.79,9,2,9,0.00
2013-2-16,27.7,19.0,12.2,7.2,0.0,-8.1,54,43,21,29.09,28.94,8,0,8,0.00
2013-2-17,17.8,13.2,9.9,3.1,-6.5,-16.6,54,41,20,29.26,29.03,6,1,6,0.00
2013-2-18,43.2,28.6,10.4,17.8,3.3,-13.6,46,34,20,29.23,28.59,12,1,12,0.00
2013-2-19,42.6,28.9,17.6,33.2,11.8,-4.7,74,49,32,28.91,28.41,17,2,17,0.20
2013-2-20,22.3,19.6,14.9,1.7,-3.1,-8.8,47,36,25,29.21,28.91,11,3,11,0.00
2013-2-21,26.1,20.0,17.4,7.5,-0.5,-6.9,54,40,24,29.35,29.21,10,1,10,0.00
2013-2-22,32.7,27.0,21.0,26.0,16.0,5.7,76,63,51,29.26,28.88,10,2,10,0.00
2013-2-23,34.5,30.3,25.0,25.8,10.3,3.5,77,44,31,28.88,28.82,7,1,7,0.00
2013-2-24,35.2,26.7,19.6,13.6,9.1,3.8,58,48,31,29.15,28.88,8,0,8,0.00
2013-2-25,42.4,28.2,15.8,19.2,6.2,-0.7,65,43,18,29.21,29.12,6,0,6,0.08
2013-2-26,37.4,31.3,25.0,26.6,15.3,6.0,78,53,30,29.12,28.53,12,2,12,0.08
2013-2-27,35.2,33.7,32.7,29.4,27.6,26.6,79,78,77,28.56,28.47,20,0,20,0.04
2013-2-28,37.2,33.0,28.8,28.4,19.3,10.6,78,59,41,28.94,28.53,10,2,10,0.04